sensor_id;sensor_type;location;lat;lon;timestamp;P1;durP1;ratioP1;P2;durP2;ratioP2
1024;SDS011;501;48.214;11.350;2022-11-20T00:01:21;3.33;;;2.60;;
1024;SDS011;501;48.214;11.350;2022-11-20T00:03:48;2.90;;;2.53;;
1024;SDS011;501;48.214;11.350;2022-11-20T00:06:16;3.20;;;2.57;;
1024;SDS011;501;48.214;11.350;2022-11-20T00:08:43;3.87;;;2.90;;
1024;SDS011;501;48.214;11.350;2022-11-20T00:11:13;7.63;;;3.20;;
1024;SDS011;501;48.214;11.350;2022-11-20T00:13:40;4.27;;;2.87;;
1024;SDS011;501;48.214;11.350;2022-11-20T00:16:07;4.10;;;3.17;;
1024;SDS011;501;48.214;11.350;2022-11-20T00:18:34;3.40;;;3.07;;
1024;SDS011;501;48.214;11.350;2022-11-20T00:21:01;2.83;;;2.53;;
1024;SDS011;501;48.214;11.350;2022-11-20T00:23:32;3.20;;;2.90;;
1024;SDS011;501;48.214;11.350;2022-11-20T00:26:02;7.53;;;3.00;;
1024;SDS011;501;48.214;11.350;2022-11-20T00:28:28;3.23;;;2.67;;
1024;SDS011;501;48.214;11.350;2022-11-20T00:30:59;4.37;;;3.03;;
1024;SDS011;501;48.214;11.350;2022-11-20T00:33:27;2.70;;;2.50;;
1024;SDS011;501;48.214;11.350;2022-11-20T00:35:52;3.10;;;2.60;;
1024;SDS011;501;48.214;11.350;2022-11-20T00:38:18;3.53;;;3.20;;
1024;SDS011;501;48.214;11.350;2022-11-20T00:40:44;4.00;;;2.80;;
1024;SDS011;501;48.214;11.350;2022-11-20T00:43:09;4.07;;;2.80;;
1024;SDS011;501;48.214;11.350;2022-11-20T00:45:35;4.60;;;3.53;;
1024;SDS011;501;48.214;11.350;2022-11-20T00:48:00;5.77;;;3.60;;
1024;SDS011;501;48.214;11.350;2022-11-20T00:50:26;3.33;;;3.03;;
1024;SDS011;501;48.214;11.350;2022-11-20T00:52:51;4.03;;;3.57;;
1024;SDS011;501;48.214;11.350;2022-11-20T00:55:17;3.50;;;3.20;;
1024;SDS011;501;48.214;11.350;2022-11-20T00:57:42;4.10;;;3.20;;
1024;SDS011;501;48.214;11.350;2022-11-20T01:00:08;4.27;;;3.50;;
1024;SDS011;501;48.214;11.350;2022-11-20T01:02:34;3.80;;;3.40;;
1024;SDS011;501;48.214;11.350;2022-11-20T01:05:00;4.43;;;3.37;;
1024;SDS011;501;48.214;11.350;2022-11-20T01:07:25;4.03;;;3.27;;
1024;SDS011;501;48.214;11.350;2022-11-20T01:09:51;4.87;;;3.70;;
1024;SDS011;501;48.214;11.350;2022-11-20T01:12:16;4.07;;;3.57;;
1024;SDS011;501;48.214;11.350;2022-11-20T01:14:42;3.97;;;3.57;;
1024;SDS011;501;48.214;11.350;2022-11-20T01:17:07;4.50;;;3.30;;
1024;SDS011;501;48.214;11.350;2022-11-20T01:19:33;4.27;;;3.87;;
1024;SDS011;501;48.214;11.350;2022-11-20T01:21:58;3.73;;;3.43;;
1024;SDS011;501;48.214;11.350;2022-11-20T01:24:24;5.03;;;3.57;;
1024;SDS011;501;48.214;11.350;2022-11-20T01:26:50;3.37;;;3.07;;
1024;SDS011;501;48.214;11.350;2022-11-20T01:29:20;7.40;;;3.30;;
1024;SDS011;501;48.214;11.350;2022-11-20T01:31:48;3.40;;;3.10;;
1024;SDS011;501;48.214;11.350;2022-11-20T01:34:19;4.50;;;3.70;;
1024;SDS011;501;48.214;11.350;2022-11-20T01:36:45;3.63;;;3.33;;
1024;SDS011;501;48.214;11.350;2022-11-20T01:39:13;5.60;;;3.80;;
1024;SDS011;501;48.214;11.350;2022-11-20T01:41:41;6.40;;;4.07;;
1024;SDS011;501;48.214;11.350;2022-11-20T01:47:35;4.30;;;3.50;;
1024;SDS011;501;48.214;11.350;2022-11-20T01:50:11;3.70;;;3.40;;
1024;SDS011;501;48.214;11.350;2022-11-20T01:55:15;6.90;;;4.27;;
1024;SDS011;501;48.214;11.350;2022-11-20T01:57:45;4.80;;;4.13;;
1024;SDS011;501;48.214;11.350;2022-11-20T02:00:14;7.93;;;4.40;;
1024;SDS011;501;48.214;11.350;2022-11-20T02:02:43;3.43;;;3.10;;
1024;SDS011;501;48.214;11.350;2022-11-20T02:07:59;4.77;;;3.93;;
1024;SDS011;501;48.214;11.350;2022-11-20T02:10:25;3.50;;;3.20;;
1024;SDS011;501;48.214;11.350;2022-11-20T02:12:52;4.33;;;3.73;;
1024;SDS011;501;48.214;11.350;2022-11-20T02:15:36;4.17;;;3.37;;
1024;SDS011;501;48.214;11.350;2022-11-20T02:18:02;3.97;;;3.57;;
1024;SDS011;501;48.214;11.350;2022-11-20T02:20:28;4.23;;;3.87;;
1024;SDS011;501;48.214;11.350;2022-11-20T02:25:21;4.73;;;3.90;;
1024;SDS011;501;48.214;11.350;2022-11-20T02:27:49;4.33;;;3.90;;
1024;SDS011;501;48.214;11.350;2022-11-20T02:30:16;3.73;;;3.37;;
1024;SDS011;501;48.214;11.350;2022-11-20T02:32:42;5.60;;;4.13;;
1024;SDS011;501;48.214;11.350;2022-11-20T02:37:48;5.70;;;3.97;;
1024;SDS011;501;48.214;11.350;2022-11-20T02:40:17;4.23;;;3.83;;
1024;SDS011;501;48.214;11.350;2022-11-20T02:42:43;6.03;;;4.00;;
1024;SDS011;501;48.214;11.350;2022-11-20T02:45:09;4.10;;;3.73;;
1024;SDS011;501;48.214;11.350;2022-11-20T02:47:34;5.10;;;4.00;;
1024;SDS011;501;48.214;11.350;2022-11-20T02:50:00;3.80;;;3.40;;
1024;SDS011;501;48.214;11.350;2022-11-20T02:52:26;3.87;;;3.53;;
1024;SDS011;501;48.214;11.350;2022-11-20T02:54:52;5.13;;;4.43;;
1024;SDS011;501;48.214;11.350;2022-11-20T02:57:17;4.80;;;4.00;;
1024;SDS011;501;48.214;11.350;2022-11-20T02:59:43;4.90;;;3.97;;
1024;SDS011;501;48.214;11.350;2022-11-20T03:02:08;5.63;;;4.40;;
1024;SDS011;501;48.214;11.350;2022-11-20T03:04:34;6.90;;;4.23;;
1024;SDS011;501;48.214;11.350;2022-11-20T03:07:00;4.20;;;3.80;;
1024;SDS011;501;48.214;11.350;2022-11-20T03:09:25;4.37;;;3.60;;
1024;SDS011;501;48.214;11.350;2022-11-20T03:11:51;4.60;;;3.70;;
1024;SDS011;501;48.214;11.350;2022-11-20T03:14:17;4.30;;;3.90;;
1024;SDS011;501;48.214;11.350;2022-11-20T03:16:42;5.60;;;4.60;;
1024;SDS011;501;48.214;11.350;2022-11-20T03:19:08;4.60;;;3.50;;
1024;SDS011;501;48.214;11.350;2022-11-20T03:21:34;6.23;;;4.00;;
1024;SDS011;501;48.214;11.350;2022-11-20T03:24:00;6.13;;;4.40;;
1024;SDS011;501;48.214;11.350;2022-11-20T03:26:26;3.80;;;3.50;;
1024;SDS011;501;48.214;11.350;2022-11-20T03:28:53;5.00;;;4.37;;
1024;SDS011;501;48.214;11.350;2022-11-20T03:31:24;4.33;;;3.77;;
1024;SDS011;501;48.214;11.350;2022-11-20T03:33:51;4.67;;;3.70;;
1024;SDS011;501;48.214;11.350;2022-11-20T03:36:17;4.00;;;3.60;;
1024;SDS011;501;48.214;11.350;2022-11-20T03:38:44;4.20;;;3.73;;
1024;SDS011;501;48.214;11.350;2022-11-20T03:41:11;6.33;;;3.80;;
1024;SDS011;501;48.214;11.350;2022-11-20T03:43:42;6.20;;;3.90;;
1024;SDS011;501;48.214;11.350;2022-11-20T03:46:14;4.30;;;3.80;;
1024;SDS011;501;48.214;11.350;2022-11-20T03:48:40;4.90;;;3.07;;
1024;SDS011;501;48.214;11.350;2022-11-20T03:51:07;4.37;;;3.77;;
1024;SDS011;501;48.214;11.350;2022-11-20T03:53:33;5.10;;;3.70;;
1024;SDS011;501;48.214;11.350;2022-11-20T03:55:58;4.13;;;3.50;;
1024;SDS011;501;48.214;11.350;2022-11-20T03:58:24;4.13;;;3.73;;
1024;SDS011;501;48.214;11.350;2022-11-20T04:00:49;4.37;;;3.70;;
1024;SDS011;501;48.214;11.350;2022-11-20T04:03:15;4.33;;;3.67;;
1024;SDS011;501;48.214;11.350;2022-11-20T04:05:41;3.87;;;3.57;;
1024;SDS011;501;48.214;11.350;2022-11-20T04:08:06;4.23;;;3.77;;
1024;SDS011;501;48.214;11.350;2022-11-20T04:10:32;4.13;;;3.73;;
1024;SDS011;501;48.214;11.350;2022-11-20T04:12:58;3.63;;;3.33;;
1024;SDS011;501;48.214;11.350;2022-11-20T04:15:23;3.87;;;3.57;;
1024;SDS011;501;48.214;11.350;2022-11-20T04:17:49;4.30;;;3.30;;
1024;SDS011;501;48.214;11.350;2022-11-20T04:20:14;4.33;;;3.80;;
1024;SDS011;501;48.214;11.350;2022-11-20T04:22:40;4.73;;;4.23;;
1024;SDS011;501;48.214;11.350;2022-11-20T04:25:05;3.83;;;3.50;;
1024;SDS011;501;48.214;11.350;2022-11-20T04:27:31;3.77;;;3.43;;
1024;SDS011;501;48.214;11.350;2022-11-20T04:29:57;5.00;;;4.10;;
1024;SDS011;501;48.214;11.350;2022-11-20T04:32:23;4.17;;;3.77;;
1024;SDS011;501;48.214;11.350;2022-11-20T04:34:48;4.33;;;3.93;;
1024;SDS011;501;48.214;11.350;2022-11-20T04:37:14;3.60;;;3.30;;
1024;SDS011;501;48.214;11.350;2022-11-20T04:39:39;3.73;;;3.37;;
1024;SDS011;501;48.214;11.350;2022-11-20T04:42:05;5.93;;;3.23;;
1024;SDS011;501;48.214;11.350;2022-11-20T04:44:49;5.87;;;3.90;;
1024;SDS011;501;48.214;11.350;2022-11-20T04:47:14;4.20;;;3.60;;
1024;SDS011;501;48.214;11.350;2022-11-20T04:49:40;4.33;;;3.93;;
1024;SDS011;501;48.214;11.350;2022-11-20T04:52:05;3.70;;;3.40;;
1024;SDS011;501;48.214;11.350;2022-11-20T04:54:31;4.53;;;3.70;;
1024;SDS011;501;48.214;11.350;2022-11-20T04:56:57;5.50;;;4.30;;
1024;SDS011;501;48.214;11.350;2022-11-20T04:59:22;4.23;;;3.83;;
1024;SDS011;501;48.214;11.350;2022-11-20T05:01:48;4.80;;;3.60;;
1024;SDS011;501;48.214;11.350;2022-11-20T05:04:13;4.10;;;3.70;;
1024;SDS011;501;48.214;11.350;2022-11-20T05:06:39;4.70;;;4.10;;
1024;SDS011;501;48.214;11.350;2022-11-20T05:09:04;5.07;;;4.00;;
1024;SDS011;501;48.214;11.350;2022-11-20T05:11:31;4.10;;;3.70;;
1024;SDS011;501;48.214;11.350;2022-11-20T05:13:57;4.30;;;3.50;;
1024;SDS011;501;48.214;11.350;2022-11-20T05:16:24;4.60;;;3.50;;
1024;SDS011;501;48.214;11.350;2022-11-20T05:18:51;4.23;;;3.60;;
1024;SDS011;501;48.214;11.350;2022-11-20T05:21:18;4.90;;;3.77;;
1024;SDS011;501;48.214;11.350;2022-11-20T05:23:44;3.87;;;3.57;;
1024;SDS011;501;48.214;11.350;2022-11-20T05:26:14;2.70;;;2.47;;
1024;SDS011;501;48.214;11.350;2022-11-20T05:28:42;4.47;;;4.07;;
1024;SDS011;501;48.214;11.350;2022-11-20T05:31:08;3.70;;;3.40;;
1024;SDS011;501;48.214;11.350;2022-11-20T05:33:39;6.80;;;3.90;;
1024;SDS011;501;48.214;11.350;2022-11-20T05:36:06;4.40;;;3.97;;
1024;SDS011;501;48.214;11.350;2022-11-20T05:38:32;4.00;;;3.47;;
1024;SDS011;501;48.214;11.350;2022-11-20T05:41:05;3.53;;;3.00;;
1024;SDS011;501;48.214;11.350;2022-11-20T05:43:32;3.50;;;3.10;;
1024;SDS011;501;48.214;11.350;2022-11-20T05:46:02;4.20;;;3.37;;
1024;SDS011;501;48.214;11.350;2022-11-20T05:48:28;4.00;;;3.30;;
1024;SDS011;501;48.214;11.350;2022-11-20T05:50:56;4.00;;;3.53;;
1024;SDS011;501;48.214;11.350;2022-11-20T05:53:22;4.10;;;2.83;;
1024;SDS011;501;48.214;11.350;2022-11-20T05:55:55;3.80;;;3.37;;
1024;SDS011;501;48.214;11.350;2022-11-20T05:58:25;3.40;;;2.90;;
1024;SDS011;501;48.214;11.350;2022-11-20T06:00:51;3.43;;;3.13;;
1024;SDS011;501;48.214;11.350;2022-11-20T06:03:17;2.83;;;2.63;;
1024;SDS011;501;48.214;11.350;2022-11-20T06:05:42;3.60;;;3.17;;
1024;SDS011;501;48.214;11.350;2022-11-20T06:08:08;3.70;;;3.10;;
1024;SDS011;501;48.214;11.350;2022-11-20T06:10:34;3.30;;;3.00;;
1024;SDS011;501;48.214;11.350;2022-11-20T06:12:59;2.93;;;2.73;;
1024;SDS011;501;48.214;11.350;2022-11-20T06:15:25;3.33;;;3.03;;
1024;SDS011;501;48.214;11.350;2022-11-20T06:17:54;4.13;;;2.90;;
1024;SDS011;501;48.214;11.350;2022-11-20T06:20:20;4.10;;;2.93;;
1024;SDS011;501;48.214;11.350;2022-11-20T06:22:47;3.27;;;2.97;;
1024;SDS011;501;48.214;11.350;2022-11-20T06:25:12;3.30;;;3.00;;
1024;SDS011;501;48.214;11.350;2022-11-20T06:27:38;2.87;;;2.67;;
1024;SDS011;501;48.214;11.350;2022-11-20T06:30:04;3.10;;;2.70;;
1024;SDS011;501;48.214;11.350;2022-11-20T06:32:30;2.77;;;2.57;;
1024;SDS011;501;48.214;11.350;2022-11-20T06:34:56;3.77;;;3.00;;
1024;SDS011;501;48.214;11.350;2022-11-20T06:37:21;3.43;;;2.87;;
1024;SDS011;501;48.214;11.350;2022-11-20T06:39:47;4.10;;;3.20;;
1024;SDS011;501;48.214;11.350;2022-11-20T06:42:12;3.37;;;3.07;;
1024;SDS011;501;48.214;11.350;2022-11-20T06:44:38;4.60;;;3.00;;
1024;SDS011;501;48.214;11.350;2022-11-20T06:47:04;3.50;;;3.07;;
1024;SDS011;501;48.214;11.350;2022-11-20T06:49:29;3.60;;;3.30;;
1024;SDS011;501;48.214;11.350;2022-11-20T06:51:55;4.60;;;2.90;;
1024;SDS011;501;48.214;11.350;2022-11-20T06:54:20;3.27;;;2.97;;
1024;SDS011;501;48.214;11.350;2022-11-20T06:56:46;3.40;;;3.10;;
1024;SDS011;501;48.214;11.350;2022-11-20T06:59:13;4.10;;;3.30;;
1024;SDS011;501;48.214;11.350;2022-11-20T07:01:38;2.90;;;2.60;;
1024;SDS011;501;48.214;11.350;2022-11-20T07:04:04;3.77;;;3.07;;
1024;SDS011;501;48.214;11.350;2022-11-20T07:06:30;3.03;;;2.80;;
1024;SDS011;501;48.214;11.350;2022-11-20T07:08:56;4.83;;;3.00;;
1024;SDS011;501;48.214;11.350;2022-11-20T07:11:22;3.40;;;3.10;;
1024;SDS011;501;48.214;11.350;2022-11-20T07:13:47;3.40;;;3.10;;
1024;SDS011;501;48.214;11.350;2022-11-20T07:16:13;3.97;;;3.20;;
1024;SDS011;501;48.214;11.350;2022-11-20T07:18:38;3.13;;;2.83;;
1024;SDS011;501;48.214;11.350;2022-11-20T07:21:05;3.20;;;2.90;;
1024;SDS011;501;48.214;11.350;2022-11-20T07:23:32;4.07;;;3.00;;
1024;SDS011;501;48.214;11.350;2022-11-20T07:26:02;4.37;;;3.43;;
1024;SDS011;501;48.214;11.350;2022-11-20T07:28:32;3.20;;;3.00;;
1024;SDS011;501;48.214;11.350;2022-11-20T07:30:58;5.00;;;4.00;;
1024;SDS011;501;48.214;11.350;2022-11-20T07:33:24;5.13;;;3.17;;
1024;SDS011;501;48.214;11.350;2022-11-20T07:35:49;4.70;;;3.13;;
1024;SDS011;501;48.214;11.350;2022-11-20T07:38:15;4.93;;;3.93;;
1024;SDS011;501;48.214;11.350;2022-11-20T07:40:41;4.03;;;3.37;;
1024;SDS011;501;48.214;11.350;2022-11-20T07:43:06;3.77;;;3.40;;
1024;SDS011;501;48.214;11.350;2022-11-20T07:45:32;3.90;;;3.50;;
1024;SDS011;501;48.214;11.350;2022-11-20T07:47:57;3.50;;;3.20;;
1024;SDS011;501;48.214;11.350;2022-11-20T07:50:23;4.40;;;3.70;;
1024;SDS011;501;48.214;11.350;2022-11-20T07:52:49;4.07;;;3.60;;
1024;SDS011;501;48.214;11.350;2022-11-20T07:55:14;4.50;;;3.43;;
1024;SDS011;501;48.214;11.350;2022-11-20T07:57:40;4.37;;;3.33;;
1024;SDS011;501;48.214;11.350;2022-11-20T08:00:06;7.40;;;4.60;;
1024;SDS011;501;48.214;11.350;2022-11-20T08:02:34;4.53;;;4.13;;
1024;SDS011;501;48.214;11.350;2022-11-20T08:05:05;4.53;;;3.70;;
1024;SDS011;501;48.214;11.350;2022-11-20T08:07:35;3.80;;;3.40;;
1024;SDS011;501;48.214;11.350;2022-11-20T08:10:04;4.37;;;3.50;;
1024;SDS011;501;48.214;11.350;2022-11-20T08:12:31;5.07;;;4.00;;
1024;SDS011;501;48.214;11.350;2022-11-20T08:15:15;5.63;;;3.30;;
1024;SDS011;501;48.214;11.350;2022-11-20T08:17:40;5.07;;;3.47;;
1024;SDS011;501;48.214;11.350;2022-11-20T08:20:06;3.83;;;3.13;;
1024;SDS011;501;48.214;11.350;2022-11-20T08:22:32;5.70;;;3.73;;
1024;SDS011;501;48.214;11.350;2022-11-20T08:24:57;3.87;;;3.50;;
1024;SDS011;501;48.214;11.350;2022-11-20T08:27:23;3.90;;;3.50;;
1024;SDS011;501;48.214;11.350;2022-11-20T08:29:49;4.10;;;3.37;;
1024;SDS011;501;48.214;11.350;2022-11-20T08:32:14;4.80;;;3.77;;
1024;SDS011;501;48.214;11.350;2022-11-20T08:34:40;3.97;;;3.57;;
1024;SDS011;501;48.214;11.350;2022-11-20T08:37:05;3.30;;;3.00;;
1024;SDS011;501;48.214;11.350;2022-11-20T08:39:31;3.20;;;2.90;;
1024;SDS011;501;48.214;11.350;2022-11-20T08:41:56;3.97;;;3.40;;
1024;SDS011;501;48.214;11.350;2022-11-20T08:44:22;2.87;;;2.67;;
1024;SDS011;501;48.214;11.350;2022-11-20T08:46:48;2.83;;;2.63;;
1024;SDS011;501;48.214;11.350;2022-11-20T08:49:13;3.50;;;3.20;;
1024;SDS011;501;48.214;11.350;2022-11-20T08:51:40;4.90;;;3.87;;
1024;SDS011;501;48.214;11.350;2022-11-20T08:54:06;6.13;;;4.10;;
1024;SDS011;501;48.214;11.350;2022-11-20T08:56:33;4.10;;;3.33;;
1024;SDS011;501;48.214;11.350;2022-11-20T08:58:58;4.13;;;3.40;;
1024;SDS011;501;48.214;11.350;2022-11-20T09:01:24;3.83;;;3.53;;
1024;SDS011;501;48.214;11.350;2022-11-20T09:03:51;3.67;;;3.23;;
1024;SDS011;501;48.214;11.350;2022-11-20T09:06:16;4.27;;;3.87;;
1024;SDS011;501;48.214;11.350;2022-11-20T09:08:43;5.93;;;3.13;;
1024;SDS011;501;48.214;11.350;2022-11-20T09:11:09;3.67;;;3.30;;
1024;SDS011;501;48.214;11.350;2022-11-20T09:13:35;3.47;;;3.17;;
1024;SDS011;501;48.214;11.350;2022-11-20T09:16:02;3.53;;;3.20;;
1024;SDS011;501;48.214;11.350;2022-11-20T09:18:31;2.77;;;2.57;;
1024;SDS011;501;48.214;11.350;2022-11-20T09:21:00;3.03;;;2.73;;
1024;SDS011;501;48.214;11.350;2022-11-20T09:23:30;6.87;;;3.30;;
1024;SDS011;501;48.214;11.350;2022-11-20T09:26:01;4.13;;;3.27;;
1024;SDS011;501;48.214;11.350;2022-11-20T09:28:30;7.23;;;3.50;;
1024;SDS011;501;48.214;11.350;2022-11-20T09:30:56;4.13;;;2.40;;
1024;SDS011;501;48.214;11.350;2022-11-20T09:33:22;3.00;;;2.70;;
1024;SDS011;501;48.214;11.350;2022-11-20T09:35:48;3.93;;;2.50;;
1024;SDS011;501;48.214;11.350;2022-11-20T09:38:13;4.50;;;2.40;;
1024;SDS011;501;48.214;11.350;2022-11-20T09:43:30;2.90;;;2.60;;
1024;SDS011;501;48.214;11.350;2022-11-20T09:46:08;2.50;;;2.30;;
1024;SDS011;501;48.214;11.350;2022-11-20T09:54:55;2.87;;;2.57;;
1024;SDS011;501;48.214;11.350;2022-11-20T09:57:21;4.03;;;2.77;;
1024;SDS011;501;48.214;11.350;2022-11-20T09:59:58;4.80;;;2.93;;
1024;SDS011;501;48.214;11.350;2022-11-20T10:05:41;2.77;;;2.10;;
1024;SDS011;501;48.214;11.350;2022-11-20T10:10:46;2.40;;;2.20;;
1024;SDS011;501;48.214;11.350;2022-11-20T10:24:33;2.77;;;2.17;;
1024;SDS011;501;48.214;11.350;2022-11-20T10:27:35;4.70;;;2.07;;
1024;SDS011;501;48.214;11.350;2022-11-20T10:30:08;2.00;;;1.90;;
1024;SDS011;501;48.214;11.350;2022-11-20T10:32:37;3.70;;;2.40;;
1024;SDS011;501;48.214;11.350;2022-11-20T10:35:14;2.67;;;2.47;;
1024;SDS011;501;48.214;11.350;2022-11-20T10:37:46;1.90;;;1.70;;
1024;SDS011;501;48.214;11.350;2022-11-20T10:40:42;1.40;;;1.23;;
1024;SDS011;501;48.214;11.350;2022-11-20T10:43:12;2.00;;;1.77;;
1024;SDS011;501;48.214;11.350;2022-11-20T10:48:16;2.50;;;1.70;;
1024;SDS011;501;48.214;11.350;2022-11-20T10:50:49;2.00;;;1.80;;
1024;SDS011;501;48.214;11.350;2022-11-20T10:56:45;2.27;;;1.87;;
1024;SDS011;501;48.214;11.350;2022-11-20T11:02:12;2.80;;;2.17;;
1024;SDS011;501;48.214;11.350;2022-11-20T11:04:46;1.67;;;1.57;;
1024;SDS011;501;48.214;11.350;2022-11-20T11:07:30;1.80;;;1.50;;
1024;SDS011;501;48.214;11.350;2022-11-20T11:10:00;3.50;;;1.73;;
1024;SDS011;501;48.214;11.350;2022-11-20T11:12:30;2.03;;;1.70;;
1024;SDS011;501;48.214;11.350;2022-11-20T11:14:56;1.93;;;1.77;;
1024;SDS011;501;48.214;11.350;2022-11-20T11:17:24;2.37;;;1.90;;
1024;SDS011;501;48.214;11.350;2022-11-20T11:22:23;2.33;;;2.17;;
1024;SDS011;501;48.214;11.350;2022-11-20T11:24:52;4.60;;;2.13;;
1024;SDS011;501;48.214;11.350;2022-11-20T11:27:18;1.90;;;1.80;;
1024;SDS011;501;48.214;11.350;2022-11-20T11:29:45;1.70;;;1.60;;
1024;SDS011;501;48.214;11.350;2022-11-20T11:32:20;2.70;;;2.03;;
1024;SDS011;501;48.214;11.350;2022-11-20T11:35:00;2.80;;;2.00;;
1024;SDS011;501;48.214;11.350;2022-11-20T11:37:26;2.57;;;2.20;;
1024;SDS011;501;48.214;11.350;2022-11-20T11:39:58;1.60;;;1.50;;
1024;SDS011;501;48.214;11.350;2022-11-20T11:42:23;2.33;;;1.50;;
1024;SDS011;501;48.214;11.350;2022-11-20T11:44:49;1.53;;;1.43;;
1024;SDS011;501;48.214;11.350;2022-11-20T11:52:42;1.67;;;1.57;;
1024;SDS011;501;48.214;11.350;2022-11-20T11:58:40;1.80;;;1.70;;
1024;SDS011;501;48.214;11.350;2022-11-20T12:06:29;1.93;;;1.60;;
1024;SDS011;501;48.214;11.350;2022-11-20T12:09:10;2.10;;;1.90;;
1024;SDS011;501;48.214;11.350;2022-11-20T12:11:43;2.93;;;2.00;;
1024;SDS011;501;48.214;11.350;2022-11-20T12:17:01;2.87;;;1.67;;
1024;SDS011;501;48.214;11.350;2022-11-20T12:19:28;2.40;;;2.20;;
1024;SDS011;501;48.214;11.350;2022-11-20T12:27:54;1.93;;;1.73;;
1024;SDS011;501;48.214;11.350;2022-11-20T12:30:23;2.70;;;2.10;;
1024;SDS011;501;48.214;11.350;2022-11-20T12:43:21;2.27;;;2.07;;
1024;SDS011;501;48.214;11.350;2022-11-20T12:46:24;2.20;;;1.50;;
1024;SDS011;501;48.214;11.350;2022-11-20T12:54:36;1.80;;;1.70;;
1024;SDS011;501;48.214;11.350;2022-11-20T12:57:15;1.80;;;1.70;;
1024;SDS011;501;48.214;11.350;2022-11-20T13:00:06;2.20;;;2.00;;
1024;SDS011;501;48.214;11.350;2022-11-20T13:08:24;2.23;;;1.87;;
1024;SDS011;501;48.214;11.350;2022-11-20T13:19:13;2.40;;;2.20;;
1024;SDS011;501;48.214;11.350;2022-11-20T13:21:45;2.50;;;1.83;;
1024;SDS011;501;48.214;11.350;2022-11-20T13:24:21;2.60;;;2.40;;
1024;SDS011;501;48.214;11.350;2022-11-20T13:27:05;2.63;;;2.43;;
1024;SDS011;501;48.214;11.350;2022-11-20T13:29:34;1.80;;;1.70;;
1024;SDS011;501;48.214;11.350;2022-11-20T13:32:12;2.13;;;1.93;;
1024;SDS011;501;48.214;11.350;2022-11-20T13:34:50;2.87;;;2.57;;
1024;SDS011;501;48.214;11.350;2022-11-20T13:37:25;2.60;;;2.40;;
1024;SDS011;501;48.214;11.350;2022-11-20T13:45:31;3.83;;;2.70;;
1024;SDS011;501;48.214;11.350;2022-11-20T13:47:58;2.70;;;2.50;;
1024;SDS011;501;48.214;11.350;2022-11-20T13:50:38;2.47;;;2.30;;
1024;SDS011;501;48.214;11.350;2022-11-20T13:53:13;2.90;;;1.93;;
1024;SDS011;501;48.214;11.350;2022-11-20T13:55:59;2.20;;;2.00;;
1024;SDS011;501;48.214;11.350;2022-11-20T14:01:30;2.87;;;2.00;;
1024;SDS011;501;48.214;11.350;2022-11-20T14:03:57;2.40;;;2.20;;
1024;SDS011;501;48.214;11.350;2022-11-20T14:06:26;4.13;;;2.27;;
1024;SDS011;501;48.214;11.350;2022-11-20T14:08:56;3.90;;;2.37;;
1024;SDS011;501;48.214;11.350;2022-11-20T14:11:24;3.23;;;2.93;;
1024;SDS011;501;48.214;11.350;2022-11-20T14:16:27;2.30;;;1.87;;
1024;SDS011;501;48.214;11.350;2022-11-20T14:18:54;2.60;;;2.40;;
1024;SDS011;501;48.214;11.350;2022-11-20T14:21:26;3.37;;;2.53;;
1024;SDS011;501;48.214;11.350;2022-11-20T14:24:07;2.27;;;2.07;;
1024;SDS011;501;48.214;11.350;2022-11-20T14:26:36;2.77;;;2.57;;
1024;SDS011;501;48.214;11.350;2022-11-20T14:29:11;3.87;;;2.70;;
1024;SDS011;501;48.214;11.350;2022-11-20T14:31:43;2.50;;;2.30;;
1024;SDS011;501;48.214;11.350;2022-11-20T14:34:26;2.47;;;2.27;;
1024;SDS011;501;48.214;11.350;2022-11-20T14:37:00;2.63;;;2.43;;
1024;SDS011;501;48.214;11.350;2022-11-20T14:39:33;3.23;;;2.93;;
1024;SDS011;501;48.214;11.350;2022-11-20T14:42:00;2.43;;;2.07;;
1024;SDS011;501;48.214;11.350;2022-11-20T14:44:27;2.00;;;1.90;;
1024;SDS011;501;48.214;11.350;2022-11-20T14:46:56;2.30;;;2.10;;
1024;SDS011;501;48.214;11.350;2022-11-20T14:49:22;2.27;;;1.87;;
1024;SDS011;501;48.214;11.350;2022-11-20T14:51:58;3.00;;;1.73;;
1024;SDS011;501;48.214;11.350;2022-11-20T14:54:25;1.90;;;1.60;;
1024;SDS011;501;48.214;11.350;2022-11-20T14:57:02;1.70;;;1.60;;
1024;SDS011;501;48.214;11.350;2022-11-20T14:59:29;2.13;;;1.80;;
1024;SDS011;501;48.214;11.350;2022-11-20T15:01:58;1.63;;;1.53;;
1024;SDS011;501;48.214;11.350;2022-11-20T15:04:26;2.10;;;1.90;;
1024;SDS011;501;48.214;11.350;2022-11-20T15:06:53;1.80;;;1.70;;
1024;SDS011;501;48.214;11.350;2022-11-20T15:09:20;2.93;;;1.50;;
1024;SDS011;501;48.214;11.350;2022-11-20T15:11:54;1.30;;;1.20;;
1024;SDS011;501;48.214;11.350;2022-11-20T15:14:21;1.40;;;1.30;;
1024;SDS011;501;48.214;11.350;2022-11-20T15:16:48;1.40;;;1.30;;
1024;SDS011;501;48.214;11.350;2022-11-20T15:19:19;7.70;;;1.40;;
1024;SDS011;501;48.214;11.350;2022-11-20T15:21:46;1.70;;;1.60;;
1024;SDS011;501;48.214;11.350;2022-11-20T15:24:11;2.13;;;1.27;;
1024;SDS011;501;48.214;11.350;2022-11-20T15:26:37;1.80;;;1.70;;
1024;SDS011;501;48.214;11.350;2022-11-20T15:29:10;1.60;;;1.50;;
1024;SDS011;501;48.214;11.350;2022-11-20T15:31:37;1.40;;;1.30;;
1024;SDS011;501;48.214;11.350;2022-11-20T15:34:09;1.50;;;1.40;;
1024;SDS011;501;48.214;11.350;2022-11-20T15:36:37;1.63;;;1.53;;
1024;SDS011;501;48.214;11.350;2022-11-20T15:39:03;3.20;;;1.63;;
1024;SDS011;501;48.214;11.350;2022-11-20T15:41:29;2.20;;;2.00;;
1024;SDS011;501;48.214;11.350;2022-11-20T15:43:55;1.90;;;1.70;;
1024;SDS011;501;48.214;11.350;2022-11-20T15:46:23;2.23;;;2.00;;
1024;SDS011;501;48.214;11.350;2022-11-20T15:48:55;1.60;;;1.50;;
1024;SDS011;501;48.214;11.350;2022-11-20T15:51:38;2.10;;;1.90;;
1024;SDS011;501;48.214;11.350;2022-11-20T15:54:13;1.90;;;1.23;;
1024;SDS011;501;48.214;11.350;2022-11-20T15:56:45;2.93;;;2.10;;
1024;SDS011;501;48.214;11.350;2022-11-20T15:59:11;2.43;;;2.00;;
1024;SDS011;501;48.214;11.350;2022-11-20T16:01:39;1.80;;;1.70;;
1024;SDS011;501;48.214;11.350;2022-11-20T16:04:08;2.13;;;1.93;;
1024;SDS011;501;48.214;11.350;2022-11-20T16:06:39;2.37;;;2.17;;
1024;SDS011;501;48.214;11.350;2022-11-20T16:09:05;3.27;;;2.07;;
1024;SDS011;501;48.214;11.350;2022-11-20T16:11:32;1.70;;;1.60;;
1024;SDS011;501;48.214;11.350;2022-11-20T16:13:58;4.17;;;1.90;;
1024;SDS011;501;48.214;11.350;2022-11-20T16:16:42;2.57;;;2.37;;
1024;SDS011;501;48.214;11.350;2022-11-20T16:19:11;2.07;;;1.97;;
1024;SDS011;501;48.214;11.350;2022-11-20T16:21:38;2.50;;;2.30;;
1024;SDS011;501;48.214;11.350;2022-11-20T16:24:06;4.43;;;3.07;;
1024;SDS011;501;48.214;11.350;2022-11-20T16:26:33;2.87;;;2.63;;
1024;SDS011;501;48.214;11.350;2022-11-20T16:28:59;2.20;;;2.00;;
1024;SDS011;501;48.214;11.350;2022-11-20T16:31:26;3.00;;;2.80;;
1024;SDS011;501;48.214;11.350;2022-11-20T16:33:52;3.37;;;3.07;;
1024;SDS011;501;48.214;11.350;2022-11-20T16:36:20;3.47;;;3.17;;
1024;SDS011;501;48.214;11.350;2022-11-20T16:38:51;4.27;;;3.43;;
1024;SDS011;501;48.214;11.350;2022-11-20T16:41:17;5.23;;;3.20;;
1024;SDS011;501;48.214;11.350;2022-11-20T16:43:55;4.93;;;3.07;;
1024;SDS011;501;48.214;11.350;2022-11-20T16:46:22;3.07;;;2.77;;
1024;SDS011;501;48.214;11.350;2022-11-20T16:48:52;5.60;;;4.23;;
1024;SDS011;501;48.214;11.350;2022-11-20T16:51:22;9.97;;;5.70;;
1024;SDS011;501;48.214;11.350;2022-11-20T16:53:49;6.67;;;5.00;;
1024;SDS011;501;48.214;11.350;2022-11-20T16:56:16;7.53;;;5.40;;
1024;SDS011;501;48.214;11.350;2022-11-20T16:58:44;5.53;;;5.03;;
1024;SDS011;501;48.214;11.350;2022-11-20T17:01:11;6.90;;;5.70;;
1024;SDS011;501;48.214;11.350;2022-11-20T17:03:39;6.60;;;6.00;;
1024;SDS011;501;48.214;11.350;2022-11-20T17:06:17;9.73;;;7.77;;
1024;SDS011;501;48.214;11.350;2022-11-20T17:08:44;10.77;;;8.70;;
1024;SDS011;501;48.214;11.350;2022-11-20T17:11:14;15.53;;;12.30;;
1024;SDS011;501;48.214;11.350;2022-11-20T17:13:41;14.60;;;12.20;;
1024;SDS011;501;48.214;11.350;2022-11-20T17:16:12;12.93;;;11.53;;
1024;SDS011;501;48.214;11.350;2022-11-20T17:18:39;13.10;;;11.10;;